sensor_id;sensor_type;location;lat;lon;timestamp;pressure;altitude;pressure_sealevel;temperature;humidity
56807;BME280;42687;42.524;12.052;2022-07-23T00:02:01;96959.03;;;19.95;86.99
56807;BME280;42687;42.524;12.052;2022-07-23T00:04:26;96959.28;;;19.92;83.27
56807;BME280;42687;42.524;12.052;2022-07-23T00:06:52;96963.81;;;19.81;80.70
56807;BME280;42687;42.524;12.052;2022-07-23T00:09:17;96967.16;;;19.74;77.50
56807;BME280;42687;42.524;12.052;2022-07-23T00:11:43;96957.88;;;19.68;80.95
56807;BME280;42687;42.524;12.052;2022-07-23T00:14:08;96959.56;;;19.69;83.61
56807;BME280;42687;42.524;12.052;2022-07-23T00:16:34;96949.75;;;19.70;84.32
56807;BME280;42687;42.524;12.052;2022-07-23T00:18:59;96950.88;;;19.67;84.56
56807;BME280;42687;42.524;12.052;2022-07-23T00:21:26;96947.94;;;19.60;83.79
56807;BME280;42687;42.524;12.052;2022-07-23T00:23:52;96955.53;;;19.55;84.24
56807;BME280;42687;42.524;12.052;2022-07-23T00:26:17;96949.78;;;19.50;85.60
56807;BME280;42687;42.524;12.052;2022-07-23T00:28:43;96893.34;;;19.15;86.10
56807;BME280;42687;42.524;12.052;2022-07-23T00:31:08;96951.56;;;19.49;85.89
56807;BME280;42687;42.524;12.052;2022-07-23T00:33:34;96941.06;;;19.48;85.15
56807;BME280;42687;42.524;12.052;2022-07-23T00:35:59;96944.97;;;19.44;84.57
56807;BME280;42687;42.524;12.052;2022-07-23T00:38:25;96944.56;;;19.39;84.39
56807;BME280;42687;42.524;12.052;2022-07-23T00:40:50;96945.25;;;19.31;84.51
56807;BME280;42687;42.524;12.052;2022-07-23T00:43:16;96946.94;;;19.22;85.44
56807;BME280;42687;42.524;12.052;2022-07-23T00:45:41;96950.00;;;19.17;85.56
56807;BME280;42687;42.524;12.052;2022-07-23T00:48:07;96940.63;;;19.13;87.57
56807;BME280;42687;42.524;12.052;2022-07-23T00:50:32;96943.28;;;19.13;88.89
56807;BME280;42687;42.524;12.052;2022-07-23T00:52:58;96942.31;;;19.14;90.04
56807;BME280;42687;42.524;12.052;2022-07-23T00:55:23;96935.56;;;19.20;91.31
56807;BME280;42687;42.524;12.052;2022-07-23T00:57:49;96942.03;;;19.27;91.97
56807;BME280;42687;42.524;12.052;2022-07-23T01:00:15;96927.88;;;19.17;91.52
56807;BME280;42687;42.524;12.052;2022-07-23T01:02:41;96931.25;;;19.19;89.03
56807;BME280;42687;42.524;12.052;2022-07-23T01:05:07;96925.19;;;19.17;88.88
56807;BME280;42687;42.524;12.052;2022-07-23T01:07:32;96929.13;;;19.13;90.37
56807;BME280;42687;42.524;12.052;2022-07-23T01:09:58;96928.84;;;19.06;90.48
56807;BME280;42687;42.524;12.052;2022-07-23T01:12:24;96873.50;;;18.69;88.24
56807;BME280;42687;42.524;12.052;2022-07-23T01:14:58;96926.03;;;18.98;86.88
56807;BME280;42687;42.524;12.052;2022-07-23T01:17:24;96925.13;;;18.88;84.64
56807;BME280;42687;42.524;12.052;2022-07-23T01:19:50;96927.41;;;18.92;88.90
56807;BME280;42687;42.524;12.052;2022-07-23T01:22:17;96903.38;;;18.82;93.22
56807;BME280;42687;42.524;12.052;2022-07-23T01:24:43;96928.97;;;19.05;95.69
56807;BME280;42687;42.524;12.052;2022-07-23T01:27:08;96934.59;;;19.11;96.83
56807;BME280;42687;42.524;12.052;2022-07-23T01:29:34;96931.78;;;19.23;97.45
56807;BME280;42687;42.524;12.052;2022-07-23T01:31:59;96934.59;;;19.31;97.68
56807;BME280;42687;42.524;12.052;2022-07-23T01:34:25;96933.75;;;19.30;97.91
56807;BME280;42687;42.524;12.052;2022-07-23T01:36:50;96924.22;;;19.28;97.84
56807;BME280;42687;42.524;12.052;2022-07-23T01:39:16;96917.59;;;19.12;93.54
56807;BME280;42687;42.524;12.052;2022-07-23T01:41:41;96919.28;;;19.04;91.99
56807;BME280;42687;42.524;12.052;2022-07-23T01:44:07;96921.81;;;18.95;91.96
56807;BME280;42687;42.524;12.052;2022-07-23T01:46:32;96913.22;;;18.82;90.42
56807;BME280;42687;42.524;12.052;2022-07-23T01:48:58;96911.63;;;18.70;91.13
56807;BME280;42687;42.524;12.052;2022-07-23T01:51:23;96913.41;;;18.59;92.13
56807;BME280;42687;42.524;12.052;2022-07-23T01:53:48;96907.22;;;18.49;92.79
56807;BME280;42687;42.524;12.052;2022-07-23T01:56:14;96916.47;;;18.45;93.36
56807;BME280;42687;42.524;12.052;2022-07-23T01:58:40;96919.44;;;18.52;95.00
56807;BME280;42687;42.524;12.052;2022-07-23T02:01:05;96914.78;;;18.54;96.15
56807;BME280;42687;42.524;12.052;2022-07-23T02:03:31;96908.50;;;18.55;96.65
56807;BME280;42687;42.524;12.052;2022-07-23T02:05:56;96904.28;;;18.52;96.10
56807;BME280;42687;42.524;12.052;2022-07-23T02:08:22;96902.88;;;18.48;94.22
56807;BME280;42687;42.524;12.052;2022-07-23T02:10:47;96901.03;;;18.48;92.60
56807;BME280;42687;42.524;12.052;2022-07-23T02:13:14;96904.44;;;18.50;92.11
56807;BME280;42687;42.524;12.052;2022-07-23T02:15:39;96906.50;;;18.47;91.63
56807;BME280;42687;42.524;12.052;2022-07-23T02:18:05;96901.72;;;18.41;92.14
56807;BME280;42687;42.524;12.052;2022-07-23T02:20:30;96899.84;;;18.31;92.34
56807;BME280;42687;42.524;12.052;2022-07-23T02:22:55;96911.06;;;18.25;93.43
56807;BME280;42687;42.524;12.052;2022-07-23T02:25:21;96902.94;;;18.27;94.76
56807;BME280;42687;42.524;12.052;2022-07-23T02:27:46;96917.94;;;18.28;94.47
56807;BME280;42687;42.524;12.052;2022-07-23T02:30:12;96911.75;;;18.27;93.06
56807;BME280;42687;42.524;12.052;2022-07-23T02:32:37;96911.06;;;18.25;93.89
56807;BME280;42687;42.524;12.052;2022-07-23T02:35:04;96910.75;;;18.19;93.94
56807;BME280;42687;42.524;12.052;2022-07-23T02:37:31;96909.59;;;18.11;94.32
56807;BME280;42687;42.524;12.052;2022-07-23T02:39:56;96910.25;;;18.04;94.98
56807;BME280;42687;42.524;12.052;2022-07-23T02:42:22;96910.94;;;17.96;95.78
56807;BME280;42687;42.524;12.052;2022-07-23T02:44:49;96907.53;;;17.94;96.57
56807;BME280;42687;42.524;12.052;2022-07-23T02:47:14;96899.78;;;17.91;97.14
56807;BME280;42687;42.524;12.052;2022-07-23T02:49:40;96905.50;;;17.86;97.22
56807;BME280;42687;42.524;12.052;2022-07-23T02:52:05;96912.19;;;17.80;97.34
56807;BME280;42687;42.524;12.052;2022-07-23T02:54:31;96912.56;;;17.76;97.61
56807;BME280;42687;42.524;12.052;2022-07-23T02:56:56;96905.19;;;17.79;97.97
56807;BME280;42687;42.524;12.052;2022-07-23T02:59:22;96907.00;;;17.79;98.18
56807;BME280;42687;42.524;12.052;2022-07-23T03:01:47;96910.63;;;17.78;97.69
56807;BME280;42687;42.524;12.052;2022-07-23T03:04:13;96910.38;;;17.81;96.98
56807;BME280;42687;42.524;12.052;2022-07-23T03:06:38;96908.03;;;17.88;96.33
56807;BME280;42687;42.524;12.052;2022-07-23T03:09:04;96909.03;;;17.87;95.58
56807;BME280;42687;42.524;12.052;2022-07-23T03:11:30;96910.44;;;17.91;96.59
56807;BME280;42687;42.524;12.052;2022-07-23T03:13:55;96908.75;;;17.90;97.47
56807;BME280;42687;42.524;12.052;2022-07-23T03:16:21;96904.66;;;17.86;98.10
56807;BME280;42687;42.524;12.052;2022-07-23T03:18:47;96903.94;;;17.83;98.03
56807;BME280;42687;42.524;12.052;2022-07-23T03:21:12;96901.16;;;17.85;97.91
56807;BME280;42687;42.524;12.052;2022-07-23T03:23:38;96907.78;;;17.91;95.96
56807;BME280;42687;42.524;12.052;2022-07-23T03:26:03;96903.50;;;17.99;95.51
56807;BME280;42687;42.524;12.052;2022-07-23T03:28:29;96899.72;;;18.02;95.43
56807;BME280;42687;42.524;12.052;2022-07-23T03:30:54;96900.00;;;17.99;95.75
56807;BME280;42687;42.524;12.052;2022-07-23T03:33:20;96900.38;;;17.94;96.08
56807;BME280;42687;42.524;12.052;2022-07-23T03:35:46;96906.16;;;17.99;95.95
56807;BME280;42687;42.524;12.052;2022-07-23T03:38:12;96911.25;;;18.03;92.88
56807;BME280;42687;42.524;12.052;2022-07-23T03:40:38;96914.41;;;17.96;89.64
56807;BME280;42687;42.524;12.052;2022-07-23T03:43:04;96917.00;;;17.87;89.32
56807;BME280;42687;42.524;12.052;2022-07-23T03:45:29;96919.84;;;17.74;89.26
56807;BME280;42687;42.524;12.052;2022-07-23T03:47:55;96919.34;;;17.59;89.89
56807;BME280;42687;42.524;12.052;2022-07-23T03:50:20;96917.69;;;17.46;90.87
56807;BME280;42687;42.524;12.052;2022-07-23T03:52:46;96921.72;;;17.41;92.72
56807;BME280;42687;42.524;12.052;2022-07-23T03:55:12;96919.81;;;17.31;93.86
56807;BME280;42687;42.524;12.052;2022-07-23T03:57:37;96925.53;;;17.27;94.78
56807;BME280;42687;42.524;12.052;2022-07-23T04:00:03;96921.38;;;17.34;95.11
56807;BME280;42687;42.524;12.052;2022-07-23T04:02:30;96916.34;;;17.31;92.07
56807;BME280;42687;42.524;12.052;2022-07-23T04:04:56;96929.84;;;17.28;91.68
56807;BME280;42687;42.524;12.052;2022-07-23T04:07:21;96923.97;;;17.24;91.97
56807;BME280;42687;42.524;12.052;2022-07-23T04:09:47;96917.94;;;17.22;92.36
56807;BME280;42687;42.524;12.052;2022-07-23T04:12:12;96929.78;;;17.18;92.35
56807;BME280;42687;42.524;12.052;2022-07-23T04:14:38;96926.03;;;17.21;92.48
56807;BME280;42687;42.524;12.052;2022-07-23T04:17:04;96923.84;;;17.26;93.17
56807;BME280;42687;42.524;12.052;2022-07-23T04:19:29;96909.69;;;17.25;93.12
56807;BME280;42687;42.524;12.052;2022-07-23T04:21:55;96931.31;;;17.53;90.88
56807;BME280;42687;42.524;12.052;2022-07-23T04:24:21;96931.59;;;17.71;91.86
56807;BME280;42687;42.524;12.052;2022-07-23T04:26:46;96930.09;;;17.78;92.88
56807;BME280;42687;42.524;12.052;2022-07-23T04:29:12;96935.47;;;17.88;93.50
56807;BME280;42687;42.524;12.052;2022-07-23T04:31:37;96939.31;;;17.95;93.24
56807;BME280;42687;42.524;12.052;2022-07-23T04:34:03;96927.72;;;17.96;92.70
56807;BME280;42687;42.524;12.052;2022-07-23T04:36:28;96923.38;;;17.95;93.69
56807;BME280;42687;42.524;12.052;2022-07-23T04:38:54;96918.13;;;18.05;95.98
56807;BME280;42687;42.524;12.052;2022-07-23T04:41:19;96923.50;;;18.25;97.77
56807;BME280;42687;42.524;12.052;2022-07-23T04:43:45;96912.78;;;18.36;97.32
56807;BME280;42687;42.524;12.052;2022-07-23T04:46:10;96919.50;;;18.40;95.88
56807;BME280;42687;42.524;12.052;2022-07-23T04:48:36;96918.81;;;18.38;92.53
56807;BME280;42687;42.524;12.052;2022-07-23T04:51:02;96916.56;;;18.33;87.42
56807;BME280;42687;42.524;12.052;2022-07-23T04:53:28;96915.44;;;18.36;90.01
56807;BME280;42687;42.524;12.052;2022-07-23T04:55:54;96916.03;;;18.40;91.53
56807;BME280;42687;42.524;12.052;2022-07-23T04:58:19;96919.53;;;18.50;92.54
56807;BME280;42687;42.524;12.052;2022-07-23T05:00:45;96923.53;;;18.65;86.44
56807;BME280;42687;42.524;12.052;2022-07-23T05:03:11;96926.25;;;18.85;88.53
56807;BME280;42687;42.524;12.052;2022-07-23T05:05:36;96926.84;;;18.98;89.27
56807;BME280;42687;42.524;12.052;2022-07-23T05:08:02;96938.22;;;19.10;89.49
56807;BME280;42687;42.524;12.052;2022-07-23T05:10:28;96940.66;;;19.23;90.88
56807;BME280;42687;42.524;12.052;2022-07-23T05:12:53;96931.81;;;19.32;91.65
56807;BME280;42687;42.524;12.052;2022-07-23T05:15:18;96934.16;;;19.45;92.61
56807;BME280;42687;42.524;12.052;2022-07-23T05:17:44;96933.19;;;19.66;91.90
56807;BME280;42687;42.524;12.052;2022-07-23T05:20:10;96944.00;;;19.84;90.60
56807;BME280;42687;42.524;12.052;2022-07-23T05:22:35;96948.78;;;20.00;90.20
56807;BME280;42687;42.524;12.052;2022-07-23T05:25:01;96942.69;;;20.08;90.62
56807;BME280;42687;42.524;12.052;2022-07-23T05:27:26;96942.81;;;20.16;90.23
56807;BME280;42687;42.524;12.052;2022-07-23T05:29:51;96941.09;;;20.25;90.58
56807;BME280;42687;42.524;12.052;2022-07-23T05:32:17;96950.47;;;20.39;89.04
56807;BME280;42687;42.524;12.052;2022-07-23T05:34:42;96943.38;;;20.57;88.75
56807;BME280;42687;42.524;12.052;2022-07-23T05:37:08;96943.31;;;20.67;88.55
56807;BME280;42687;42.524;12.052;2022-07-23T05:39:33;96950.63;;;20.75;87.33
56807;BME280;42687;42.524;12.052;2022-07-23T05:41:59;96941.56;;;20.86;86.26
56807;BME280;42687;42.524;12.052;2022-07-23T05:44:24;96945.44;;;21.01;83.99
56807;BME280;42687;42.524;12.052;2022-07-23T05:46:52;96945.59;;;21.17;82.54
56807;BME280;42687;42.524;12.052;2022-07-23T05:49:18;96945.44;;;21.37;77.88
56807;BME280;42687;42.524;12.052;2022-07-23T05:51:43;96946.94;;;21.68;74.27
56807;BME280;42687;42.524;12.052;2022-07-23T05:54:09;96957.19;;;21.98;69.70
56807;BME280;42687;42.524;12.052;2022-07-23T05:56:35;96950.19;;;22.32;65.92
56807;BME280;42687;42.524;12.052;2022-07-23T05:59:00;96954.44;;;22.69;60.56
56807;BME280;42687;42.524;12.052;2022-07-23T06:01:26;96949.25;;;23.10;61.35
56807;BME280;42687;42.524;12.052;2022-07-23T06:03:52;96944.34;;;23.90;60.24
56807;BME280;42687;42.524;12.052;2022-07-23T06:06:17;96950.16;;;24.91;56.08
56807;BME280;42687;42.524;12.052;2022-07-23T06:08:43;96913.50;;;25.68;55.47
56807;BME280;42687;42.524;12.052;2022-07-23T06:11:08;96942.06;;;26.83;54.34
56807;BME280;42687;42.524;12.052;2022-07-23T06:13:34;96951.94;;;27.64;54.01
56807;BME280;42687;42.524;12.052;2022-07-23T06:15:59;96953.78;;;28.35;53.89
56807;BME280;42687;42.524;12.052;2022-07-23T06:18:25;96957.97;;;29.15;53.45
56807;BME280;42687;42.524;12.052;2022-07-23T06:20:50;96964.41;;;29.82;52.63
56807;BME280;42687;42.524;12.052;2022-07-23T06:23:16;96960.06;;;30.35;52.27
56807;BME280;42687;42.524;12.052;2022-07-23T06:25:41;96961.50;;;30.64;52.12
56807;BME280;42687;42.524;12.052;2022-07-23T06:28:07;96965.13;;;31.03;51.06
56807;BME280;42687;42.524;12.052;2022-07-23T06:30:32;96962.16;;;31.25;50.72
56807;BME280;42687;42.524;12.052;2022-07-23T06:32:58;96962.91;;;31.39;50.43
56807;BME280;42687;42.524;12.052;2022-07-23T06:35:23;96961.56;;;31.55;50.02
56807;BME280;42687;42.524;12.052;2022-07-23T06:37:49;96922.06;;;31.52;49.54
56807;BME280;42687;42.524;12.052;2022-07-23T06:40:14;96956.50;;;31.97;49.19
56807;BME280;42687;42.524;12.052;2022-07-23T06:42:40;96965.97;;;32.20;48.45
56807;BME280;42687;42.524;12.052;2022-07-23T06:45:06;96971.78;;;32.49;47.87
56807;BME280;42687;42.524;12.052;2022-07-23T06:47:32;96964.53;;;32.61;47.42
56807;BME280;42687;42.524;12.052;2022-07-23T06:49:57;96973.53;;;32.87;46.98
56807;BME280;42687;42.524;12.052;2022-07-23T06:52:23;96954.97;;;33.14;46.11
56807;BME280;42687;42.524;12.052;2022-07-23T06:54:49;96964.66;;;33.29;45.71
56807;BME280;42687;42.524;12.052;2022-07-23T06:57:15;96963.19;;;33.45;45.11
56807;BME280;42687;42.524;12.052;2022-07-23T06:59:40;96971.84;;;33.41;45.36
56807;BME280;42687;42.524;12.052;2022-07-23T07:02:07;96973.84;;;33.46;45.37
56807;BME280;42687;42.524;12.052;2022-07-23T07:04:32;96965.97;;;33.56;45.27
56807;BME280;42687;42.524;12.052;2022-07-23T07:06:58;96967.25;;;33.84;45.34
56807;BME280;42687;42.524;12.052;2022-07-23T07:09:23;96968.88;;;34.28;45.38
56807;BME280;42687;42.524;12.052;2022-07-23T07:11:51;96961.31;;;34.53;45.25
56807;BME280;42687;42.524;12.052;2022-07-23T07:14:17;96966.88;;;34.82;44.87
56807;BME280;42687;42.524;12.052;2022-07-23T07:16:43;96967.28;;;35.15;44.54
56807;BME280;42687;42.524;12.052;2022-07-23T07:19:08;96959.66;;;35.40;44.20
56807;BME280;42687;42.524;12.052;2022-07-23T07:21:33;96965.31;;;35.51;44.33
56807;BME280;42687;42.524;12.052;2022-07-23T07:23:59;96961.84;;;35.55;44.26
56807;BME280;42687;42.524;12.052;2022-07-23T07:26:25;96962.28;;;35.64;44.03
56807;BME280;42687;42.524;12.052;2022-07-23T07:28:50;96956.31;;;35.67;43.90
56807;BME280;42687;42.524;12.052;2022-07-23T07:31:16;96969.16;;;35.67;43.61
56807;BME280;42687;42.524;12.052;2022-07-23T07:33:42;96968.25;;;35.78;43.39
56807;BME280;42687;42.524;12.052;2022-07-23T07:36:07;96968.06;;;36.14;42.08
56807;BME280;42687;42.524;12.052;2022-07-23T07:38:33;96969.25;;;36.35;41.48
56807;BME280;42687;42.524;12.052;2022-07-23T07:40:59;96959.63;;;33.74;37.98
56807;BME280;42687;42.524;12.052;2022-07-23T07:43:25;96965.31;;;33.73;38.91
56807;BME280;42687;42.524;12.052;2022-07-23T07:45:50;96967.56;;;35.01;37.54
56807;BME280;42687;42.524;12.052;2022-07-23T07:48:16;96975.00;;;34.11;37.24
56807;BME280;42687;42.524;12.052;2022-07-23T07:50:41;96968.22;;;33.11;38.25
56807;BME280;42687;42.524;12.052;2022-07-23T07:53:07;96966.16;;;33.06;38.10
56807;BME280;42687;42.524;12.052;2022-07-23T07:55:34;96980.41;;;32.89;38.39
56807;BME280;42687;42.524;12.052;2022-07-23T07:57:59;96968.22;;;32.73;39.77
56807;BME280;42687;42.524;12.052;2022-07-23T08:00:25;96966.09;;;32.94;38.43
56807;BME280;42687;42.524;12.052;2022-07-23T08:02:51;96967.78;;;32.95;38.22
56807;BME280;42687;42.524;12.052;2022-07-23T08:05:23;96972.31;;;32.83;38.22
56807;BME280;42687;42.524;12.052;2022-07-23T08:07:50;96933.06;;;32.47;37.54
56807;BME280;42687;42.524;12.052;2022-07-23T08:10:15;96976.09;;;32.82;37.74
56807;BME280;42687;42.524;12.052;2022-07-23T08:12:45;96973.97;;;33.02;37.17
56807;BME280;42687;42.524;12.052;2022-07-23T08:15:11;96971.94;;;33.35;36.47
56807;BME280;42687;42.524;12.052;2022-07-23T08:17:37;96964.81;;;33.64;35.44
56807;BME280;42687;42.524;12.052;2022-07-23T08:20:12;96965.84;;;33.63;34.38
56807;BME280;42687;42.524;12.052;2022-07-23T08:22:45;96969.69;;;33.43;34.31
56807;BME280;42687;42.524;12.052;2022-07-23T08:25:10;96970.53;;;34.05;33.12
56807;BME280;42687;42.524;12.052;2022-07-23T08:27:36;96969.03;;;33.79;32.92
56807;BME280;42687;42.524;12.052;2022-07-23T08:30:01;96964.16;;;34.47;31.88
56807;BME280;42687;42.524;12.052;2022-07-23T08:32:27;96966.41;;;34.50;32.63
56807;BME280;42687;42.524;12.052;2022-07-23T08:34:52;96971.41;;;34.41;32.26
56807;BME280;42687;42.524;12.052;2022-07-23T08:37:18;96972.53;;;34.09;32.55
56807;BME280;42687;42.524;12.052;2022-07-23T08:39:43;96970.84;;;34.08;32.12
56807;BME280;42687;42.524;12.052;2022-07-23T08:42:09;96977.41;;;34.19;31.58
56807;BME280;42687;42.524;12.052;2022-07-23T08:44:35;96979.44;;;34.24;31.82
56807;BME280;42687;42.524;12.052;2022-07-23T08:47:00;96974.38;;;34.51;31.19
56807;BME280;42687;42.524;12.052;2022-07-23T08:49:27;96970.56;;;34.76;31.19
56807;BME280;42687;42.524;12.052;2022-07-23T08:51:52;96979.72;;;34.70;30.49
56807;BME280;42687;42.524;12.052;2022-07-23T08:54:20;96973.78;;;34.49;30.51
56807;BME280;42687;42.524;12.052;2022-07-23T08:56:46;96975.19;;;34.75;31.06
56807;BME280;42687;42.524;12.052;2022-07-23T08:59:12;96981.03;;;34.44;30.96
56807;BME280;42687;42.524;12.052;2022-07-23T09:01:39;96976.84;;;35.00;30.21
56807;BME280;42687;42.524;12.052;2022-07-23T09:04:04;96981.53;;;35.29;30.61
56807;BME280;42687;42.524;12.052;2022-07-23T09:06:30;96982.97;;;35.19;29.84
56807;BME280;42687;42.524;12.052;2022-07-23T09:08:55;96983.00;;;35.07;29.50
56807;BME280;42687;42.524;12.052;2022-07-23T09:11:21;96982.88;;;35.14;29.17
56807;BME280;42687;42.524;12.052;2022-07-23T09:13:50;96974.47;;;35.45;29.37
56807;BME280;42687;42.524;12.052;2022-07-23T09:16:19;96976.06;;;35.29;29.96
56807;BME280;42687;42.524;12.052;2022-07-23T09:21:20;96973.53;;;34.63;29.54
56807;BME280;42687;42.524;12.052;2022-07-23T09:23:48;96986.75;;;35.30;28.13
56807;BME280;42687;42.524;12.052;2022-07-23T09:26:17;96976.63;;;35.43;27.35
56807;BME280;42687;42.524;12.052;2022-07-23T09:29:26;96973.69;;;35.90;27.11
56807;BME280;42687;42.524;12.052;2022-07-23T09:34:16;96990.94;;;35.21;27.54
56807;BME280;42687;42.524;12.052;2022-07-23T09:36:42;96983.13;;;35.13;27.29
56807;BME280;42687;42.524;12.052;2022-07-23T09:39:08;96977.50;;;35.19;27.20
56807;BME280;42687;42.524;12.052;2022-07-23T09:41:38;96981.41;;;35.35;26.53
56807;BME280;42687;42.524;12.052;2022-07-23T09:44:37;96978.72;;;35.81;27.39
56807;BME280;42687;42.524;12.052;2022-07-23T09:46:57;96980.59;;;36.61;26.49
56807;BME280;42687;42.524;12.052;2022-07-23T09:49:23;96984.84;;;36.51;24.87
56807;BME280;42687;42.524;12.052;2022-07-23T09:51:50;96980.44;;;36.16;25.61
56807;BME280;42687;42.524;12.052;2022-07-23T09:54:21;96975.47;;;36.30;25.62
56807;BME280;42687;42.524;12.052;2022-07-23T09:56:48;96986.00;;;35.76;24.42
56807;BME280;42687;42.524;12.052;2022-07-23T09:59:14;96979.94;;;36.02;22.86
56807;BME280;42687;42.524;12.052;2022-07-23T10:01:42;96982.69;;;36.53;24.32
56807;BME280;42687;42.524;12.052;2022-07-23T10:04:08;96982.31;;;36.33;25.41
56807;BME280;42687;42.524;12.052;2022-07-23T10:06:36;96978.19;;;35.67;26.45
56807;BME280;42687;42.524;12.052;2022-07-23T10:09:02;96990.88;;;35.45;24.17
56807;BME280;42687;42.524;12.052;2022-07-23T10:11:27;96983.44;;;35.28;24.28
56807;BME280;42687;42.524;12.052;2022-07-23T10:13:54;96971.56;;;35.63;25.34
56807;BME280;42687;42.524;12.052;2022-07-23T10:16:20;96976.78;;;35.94;25.54
56807;BME280;42687;42.524;12.052;2022-07-23T10:18:47;96976.41;;;36.36;24.64
56807;BME280;42687;42.524;12.052;2022-07-23T10:21:12;96981.91;;;35.90;22.67
56807;BME280;42687;42.524;12.052;2022-07-23T10:29:00;96980.00;;;36.76;21.39
56807;BME280;42687;42.524;12.052;2022-07-23T10:31:31;96943.28;;;36.03;22.33
56807;BME280;42687;42.524;12.052;2022-07-23T10:34:49;96970.56;;;36.15;23.53
56807;BME280;42687;42.524;12.052;2022-07-23T10:39:19;96950.44;;;36.78;23.04
56807;BME280;42687;42.524;12.052;2022-07-23T10:41:47;96967.25;;;37.03;22.50
56807;BME280;42687;42.524;12.052;2022-07-23T10:44:16;96977.56;;;36.79;22.86
56807;BME280;42687;42.524;12.052;2022-07-23T10:49:41;96962.59;;;36.31;24.84
56807;BME280;42687;42.524;12.052;2022-07-23T10:52:16;96959.88;;;36.14;25.28
56807;BME280;42687;42.524;12.052;2022-07-23T10:54:44;96958.72;;;36.44;26.03
56807;BME280;42687;42.524;12.052;2022-07-23T10:57:13;96960.44;;;36.50;25.85
56807;BME280;42687;42.524;12.052;2022-07-23T11:02:23;96953.94;;;36.90;27.24
56807;BME280;42687;42.524;12.052;2022-07-23T11:04:49;96956.25;;;35.79;29.81
56807;BME280;42687;42.524;12.052;2022-07-23T11:07:15;96955.66;;;35.60;31.36
56807;BME280;42687;42.524;12.052;2022-07-23T11:09:41;96949.72;;;35.80;31.84
56807;BME280;42687;42.524;12.052;2022-07-23T11:17:23;96936.91;;;36.49;27.87
56807;BME280;42687;42.524;12.052;2022-07-23T11:25:09;96944.69;;;36.23;26.32
56807;BME280;42687;42.524;12.052;2022-07-23T11:27:41;96945.75;;;36.22;28.57
56807;BME280;42687;42.524;12.052;2022-07-23T11:30:07;96938.72;;;36.09;28.82
56807;BME280;42687;42.524;12.052;2022-07-23T11:32:34;96937.66;;;35.64;28.25
56807;BME280;42687;42.524;12.052;2022-07-23T11:35:00;96939.75;;;36.37;26.59
56807;BME280;42687;42.524;12.052;2022-07-23T11:37:39;96934.25;;;36.20;26.44
56807;BME280;42687;42.524;12.052;2022-07-23T11:40:06;96942.22;;;35.76;27.21
56807;BME280;42687;42.524;12.052;2022-07-23T11:42:34;96928.84;;;36.25;27.30
56807;BME280;42687;42.524;12.052;2022-07-23T11:44:59;96909.38;;;36.38;26.71
56807;BME280;42687;42.524;12.052;2022-07-23T11:47:25;96901.16;;;36.04;24.82
56807;BME280;42687;42.524;12.052;2022-07-23T11:49:55;96916.31;;;35.95;27.21
56807;BME280;42687;42.524;12.052;2022-07-23T11:52:21;96915.97;;;36.60;26.20
56807;BME280;42687;42.524;12.052;2022-07-23T11:54:51;96917.56;;;36.21;27.06
56807;BME280;42687;42.524;12.052;2022-07-23T11:57:18;96920.59;;;36.59;25.10
56807;BME280;42687;42.524;12.052;2022-07-23T11:59:43;96914.84;;;36.38;27.16
56807;BME280;42687;42.524;12.052;2022-07-23T12:02:10;96915.97;;;35.74;29.62
56807;BME280;42687;42.524;12.052;2022-07-23T12:04:43;96923.31;;;36.37;27.85
56807;BME280;42687;42.524;12.052;2022-07-23T12:07:28;96915.56;;;36.51;28.33
56807;BME280;42687;42.524;12.052;2022-07-23T12:09:54;96914.84;;;36.61;26.84
56807;BME280;42687;42.524;12.052;2022-07-23T12:12:20;96920.09;;;36.62;27.59
56807;BME280;42687;42.524;12.052;2022-07-23T12:14:56;96912.91;;;36.39;28.52
56807;BME280;42687;42.524;12.052;2022-07-23T12:17:30;96909.19;;;36.11;29.17
56807;BME280;42687;42.524;12.052;2022-07-23T12:19:56;96898.72;;;36.42;27.43
56807;BME280;42687;42.524;12.052;2022-07-23T12:22:23;96916.31;;;35.95;27.05
56807;BME280;42687;42.524;12.052;2022-07-23T12:25:32;96910.84;;;36.46;26.18
56807;BME280;42687;42.524;12.052;2022-07-23T12:27:38;96899.56;;;36.43;26.98
56807;BME280;42687;42.524;12.052;2022-07-23T12:32:45;96905.38;;;36.68;26.59
56807;BME280;42687;42.524;12.052;2022-07-23T12:35:11;96912.81;;;36.51;25.33
56807;BME280;42687;42.524;12.052;2022-07-23T12:37:37;96908.03;;;36.41;27.31
56807;BME280;42687;42.524;12.052;2022-07-23T12:40:19;96912.66;;;36.40;26.92
56807;BME280;42687;42.524;12.052;2022-07-23T12:42:49;96911.28;;;35.87;27.25
56807;BME280;42687;42.524;12.052;2022-07-23T12:45:15;96913.19;;;36.37;27.38
56807;BME280;42687;42.524;12.052;2022-07-23T12:53:43;96902.97;;;37.16;24.57
56807;BME280;42687;42.524;12.052;2022-07-23T12:55:48;96907.94;;;37.42;23.45
56807;BME280;42687;42.524;12.052;2022-07-23T12:58:15;96909.56;;;36.93;23.05
56807;BME280;42687;42.524;12.052;2022-07-23T13:03:26;96910.69;;;36.36;23.74
56807;BME280;42687;42.524;12.052;2022-07-23T13:05:52;96909.09;;;35.89;24.55
56807;BME280;42687;42.524;12.052;2022-07-23T13:08:18;96907.78;;;36.26;25.35
56807;BME280;42687;42.524;12.052;2022-07-23T13:10:43;96907.03;;;36.13;23.68
56807;BME280;42687;42.524;12.052;2022-07-23T13:13:12;96905.47;;;36.00;24.66
56807;BME280;42687;42.524;12.052;2022-07-23T13:15:38;96900.31;;;36.38;24.13
56807;BME280;42687;42.524;12.052;2022-07-23T13:18:04;96901.97;;;37.00;24.75
56807;BME280;42687;42.524;12.052;2022-07-23T13:20:29;96893.31;;;37.09;23.08
56807;BME280;42687;42.524;12.052;2022-07-23T13:22:57;96908.63;;;36.82;23.01
56807;BME280;42687;42.524;12.052;2022-07-23T13:25:22;96900.09;;;35.88;25.33
56807;BME280;42687;42.524;12.052;2022-07-23T13:27:48;96884.22;;;36.42;25.98